Time;durP1;ratioP1;P1;durP2;ratioP2;P2;SDS_P1;SDS_P2;PMS_P1;PMS_P2;Temp;Humidity;BMP_temperature;BMP_pressure;BME280_temperature;BME280_humidity;BME280_pressure;Samples;Min_cycle;Max_cycle;Signal;HPM_P1;HPM_P2
2022/01/31 00:01:03;;;;;;;;;;;;;;;3.30;55.15;99245.44;5112262;28;877;-57
2022/01/31 00:03:30;;;;;;;;;;;;;;;3.21;55.32;99253.88;5112227;28;1980;-57
2022/01/31 00:05:57;;;;;;;;;;;;;;;3.17;54.77;99249.53;5112178;28;885;-57
2022/01/31 00:08:24;;;;;;;;;;;;;;;3.35;54.11;99234.22;5112139;28;935;-56
2022/01/31 00:10:51;;;;;;;;;;;;;;;3.77;52.05;99241.41;5112222;28;913;-57
2022/01/31 00:13:23;;;;;;;;;;;;;;;3.74;52.47;99244.91;5112117;28;886;-57
2022/01/31 00:15:55;;;;;;;;;;;;;;;3.47;52.95;99258.56;5112307;28;1111;-57
2022/01/31 00:18:22;;;;;;;;;;;;;;;2.36;57.31;99256.69;5111875;28;1380;-57
2022/01/31 00:20:48;;;;;;;;;;;;;;;1.57;59.34;99254.28;5111906;28;814;-56
2022/01/31 00:23:15;;;;;;;;;;;;;;;1.06;61.67;99271.38;5111910;28;1967;-56
2022/01/31 00:25:41;;;;;;;;;;;;;;;0.67;63.03;99264.97;5111943;28;811;-56
2022/01/31 00:28:07;;;;;;;;;;;;;;;0.38;63.63;99275.88;5112043;28;909;-56
2022/01/31 00:30:35;;;;;;;;;;;;;;;0.35;64.88;99275.78;5111918;28;851;-56
2022/01/31 00:33:01;;;;;;;;;;;;;;;0.27;64.92;99280.22;5112004;28;827;-56
2022/01/31 00:35:27;;;;;;;;;;;;;;;0.22;65.68;99283.19;5111918;28;893;-56
2022/01/31 00:37:54;;;;;;;;;;;;;;;0.16;66.00;99288.06;5111760;28;929;-56
2022/01/31 00:40:20;;;;;;;;;;;;;;;0.16;66.02;99281.84;5111877;28;815;-56
2022/01/31 00:42:47;;;;;;;;;;;;;;;0.15;66.08;99280.25;5093813;28;2343;-56
2022/01/31 00:45:19;;;;;;;;;;;;;;;0.28;66.19;99270.94;5112036;28;861;-56
2022/01/31 00:47:59;;;;;;;;;;;;;;;0.65;64.53;99268.03;5111726;28;953;-56
2022/01/31 00:50:25;;;;;;;;;;;;;;;0.91;63.54;99275.69;5111964;28;850;-56
2022/01/31 00:52:51;;;;;;;;;;;;;;;1.04;63.61;99267.44;5111936;28;865;-56
2022/01/31 00:55:17;;;;;;;;;;;;;;;1.07;63.19;99272.97;5111597;28;1073;-56
2022/01/31 00:57:44;;;;;;;;;;;;;;;1.13;62.62;99262.59;5111641;28;850;-56
2022/01/31 01:00:11;;;;;;;;;;;;;;;1.52;60.69;99257.28;5111579;28;964;-56
2022/01/31 01:02:37;;;;;;;;;;;;;;;1.41;60.86;99249.66;5111765;28;1889;-56
2022/01/31 01:05:04;;;;;;;;;;;;;;;1.22;61.45;99236.00;5111563;28;905;-56
2022/01/31 01:07:31;;;;;;;;;;;;;;;1.30;61.25;99231.50;5111474;28;1057;-56
2022/01/31 01:09:57;;;;;;;;;;;;;;;1.49;59.55;99226.09;5111619;28;830;-56
2022/01/31 01:12:24;;;;;;;;;;;;;;;2.25;57.46;99231.16;5111533;28;873;-56
2022/01/31 01:14:52;;;;;;;;;;;;;;;2.12;57.57;99233.25;5111490;28;1079;-58
2022/01/31 01:17:18;;;;;;;;;;;;;;;1.53;58.33;99235.13;5111233;28;1196;-56
2022/01/31 01:19:45;;;;;;;;;;;;;;;0.87;59.84;99233.19;5111532;28;798;-56
2022/01/31 01:22:11;;;;;;;;;;;;;;;0.86;60.44;99248.75;5111343;28;1914;-56
2022/01/31 01:24:38;;;;;;;;;;;;;;;0.93;60.37;99240.75;5111422;28;878;-56
2022/01/31 01:27:05;;;;;;;;;;;;;;;2.21;57.34;99233.81;5111430;28;865;-56
2022/01/31 01:29:31;;;;;;;;;;;;;;;2.20;55.86;99234.19;5111290;28;956;-56
2022/01/31 01:31:57;;;;;;;;;;;;;;;2.91;54.39;99226.50;5113197;28;802;-56
2022/01/31 01:34:25;;;;;;;;;;;;;;;3.60;52.14;99217.38;5114941;28;859;-56
2022/01/31 01:36:53;;;;;;;;;;;;;;;3.79;51.49;99206.28;5114917;28;932;-56
2022/01/31 01:39:20;;;;;;;;;;;;;;;3.94;50.25;99193.59;5114951;28;857;-56
2022/01/31 01:41:47;;;;;;;;;;;;;;;4.08;49.98;99182.81;5114745;28;1889;-51
2022/01/31 01:44:14;;;;;;;;;;;;;;;4.35;49.33;99192.88;5114902;28;814;-55
2022/01/31 01:46:41;;;;;;;;;;;;;;;4.35;49.11;99190.13;5096732;28;835;-55
2022/01/31 01:49:07;;;;;;;;;;;;;;;4.41;49.01;99191.38;5114823;28;902;-55
2022/01/31 01:51:34;;;;;;;;;;;;;;;4.26;49.06;99193.94;5114768;28;858;-56
2022/01/31 01:54:01;;;;;;;;;;;;;;;4.24;49.20;99187.28;5114533;28;1177;-56
2022/01/31 01:56:28;;;;;;;;;;;;;;;4.12;49.79;99193.81;5114613;28;1604;-56
2022/01/31 01:58:55;;;;;;;;;;;;;;;4.13;49.82;99183.66;5114509;28;952;-56
2022/01/31 02:01:21;;;;;;;;;;;;;;;4.32;48.87;99179.94;5114389;28;1885;-55
2022/01/31 02:03:48;;;;;;;;;;;;;;;4.36;49.04;99195.25;5096496;28;881;-56
2022/01/31 02:06:15;;;;;;;;;;;;;;;4.14;49.18;99193.41;5114350;28;925;-52
2022/01/31 02:08:44;;;;;;;;;;;;;;;4.22;49.25;99192.34;5114658;28;865;-54
2022/01/31 02:11:12;;;;;;;;;;;;;;;4.26;49.09;99179.50;5114270;28;834;-56
2022/01/31 02:13:38;;;;;;;;;;;;;;;4.19;49.21;99196.63;5114371;28;790;-56
2022/01/31 02:16:05;;;;;;;;;;;;;;;4.07;49.83;99194.13;5114491;28;1016;-56
2022/01/31 02:18:32;;;;;;;;;;;;;;;4.06;49.54;99192.56;5113839;28;1202;-55
2022/01/31 02:20:59;;;;;;;;;;;;;;;4.07;49.69;99203.13;5114134;28;862;-57
2022/01/31 02:23:26;;;;;;;;;;;;;;;3.97;49.58;99197.53;5113820;28;1965;-56
2022/01/31 02:25:54;;;;;;;;;;;;;;;3.97;49.79;99214.75;5114126;28;865;-56
2022/01/31 02:28:22;;;;;;;;;;;;;;;4.14;49.53;99198.88;5114186;28;928;-56
2022/01/31 02:30:49;;;;;;;;;;;;;;;4.06;49.28;99200.78;5113933;28;878;-56
2022/01/31 02:33:16;;;;;;;;;;;;;;;4.02;49.76;99191.75;5114080;28;1175;-56
2022/01/31 02:35:42;;;;;;;;;;;;;;;3.92;49.79;99195.91;5113791;28;968;-57
2022/01/31 02:38:09;;;;;;;;;;;;;;;3.74;50.54;99206.63;5113903;28;873;-57
2022/01/31 02:40:35;;;;;;;;;;;;;;;3.80;50.66;99207.88;5095497;28;742;-56
2022/01/31 02:43:01;;;;;;;;;;;;;;;3.87;50.31;99207.19;5113402;28;1950;-57
2022/01/31 02:45:30;;;;;;;;;;;;;;;3.81;50.76;99211.41;5113742;28;873;-57
2022/01/31 02:47:58;;;;;;;;;;;;;;;3.92;50.25;99206.06;5095284;28;1206;-56
2022/01/31 02:50:25;;;;;;;;;;;;;;;3.93;50.62;99229.53;5113573;28;831;-57
2022/01/31 02:53:09;;;;;;;;;;;;;;;3.82;50.98;99230.19;5113428;28;1001;-56
2022/01/31 02:55:36;;;;;;;;;;;;;;;3.69;50.89;99217.88;5113583;28;916;-57
2022/01/31 02:58:03;;;;;;;;;;;;;;;3.65;51.55;99217.06;5113473;28;818;-57
2022/01/31 03:00:29;;;;;;;;;;;;;;;3.53;51.73;99211.81;5113448;28;869;-56
2022/01/31 03:02:56;;;;;;;;;;;;;;;3.30;51.92;99214.59;5113296;28;1881;-56
2022/01/31 03:05:23;;;;;;;;;;;;;;;3.20;52.44;99216.81;5113525;28;862;-57
2022/01/31 03:07:49;;;;;;;;;;;;;;;3.34;52.89;99218.19;5113195;28;925;-57
2022/01/31 03:10:15;;;;;;;;;;;;;;;3.46;52.51;99196.91;5113216;28;818;-56
2022/01/31 03:12:42;;;;;;;;;;;;;;;3.62;52.17;99204.13;5113234;28;888;-57
2022/01/31 03:15:08;;;;;;;;;;;;;;;3.72;51.78;99205.44;5113090;28;900;-56
2022/01/31 03:17:35;;;;;;;;;;;;;;;3.77;51.94;99200.41;5112840;28;1263;-56
2022/01/31 03:20:02;;;;;;;;;;;;;;;3.62;51.86;99193.19;5113226;28;849;-57
2022/01/31 03:22:30;;;;;;;;;;;;;;;3.73;51.90;99204.25;5113129;28;1974;-56
2022/01/31 03:24:56;;;;;;;;;;;;;;;3.62;52.10;99195.94;5112794;28;1297;-57
2022/01/31 03:27:23;;;;;;;;;;;;;;;3.66;52.48;99196.75;5112861;28;837;-56
2022/01/31 03:29:49;;;;;;;;;;;;;;;3.63;51.96;99178.38;5112704;28;889;-55
2022/01/31 03:32:16;;;;;;;;;;;;;;;3.64;52.35;99199.06;5112768;28;913;-56
2022/01/31 03:34:42;;;;;;;;;;;;;;;3.54;52.96;99200.53;5112757;28;869;-56
2022/01/31 03:37:09;;;;;;;;;;;;;;;3.48;52.69;99205.50;5112718;28;795;-56
2022/01/31 03:39:36;;;;;;;;;;;;;;;3.52;52.94;99191.09;5112688;28;873;-54
2022/01/31 03:42:02;;;;;;;;;;;;;;;3.60;53.05;99196.28;5112633;28;1889;-55
2022/01/31 03:44:32;;;;;;;;;;;;;;;3.58;52.73;99208.75;5112513;28;834;-56
2022/01/31 03:46:58;;;;;;;;;;;;;;;3.66;53.19;99183.09;5112553;28;874;-55
2022/01/31 03:49:25;;;;;;;;;;;;;;;3.62;52.89;99176.78;5112381;28;905;-55
2022/01/31 03:51:51;;;;;;;;;;;;;;;3.52;53.31;99185.63;5112296;28;827;-55
2022/01/31 03:54:17;;;;;;;;;;;;;;;3.45;53.32;99170.72;5111908;28;819;-50
2022/01/31 03:56:44;;;;;;;;;;;;;;;3.44;53.60;99179.31;5112377;28;914;-52
2022/01/31 03:59:11;;;;;;;;;;;;;;;3.61;52.91;99180.69;5112357;28;811;-50
2022/01/31 04:01:37;;;;;;;;;;;;;;;3.63;53.41;99200.25;5112155;28;1953;-56
2022/01/31 04:04:10;;;;;;;;;;;;;;;3.71;53.17;99203.84;5112251;28;877;-55
2022/01/31 04:06:41;;;;;;;;;;;;;;;3.59;53.17;99224.00;5112162;28;921;-56
2022/01/31 04:09:08;;;;;;;;;;;;;;;3.47;53.73;99200.41;5112220;28;854;-52
2022/01/31 04:11:34;;;;;;;;;;;;;;;3.50;53.76;99204.34;5112137;28;798;-54
2022/01/31 04:14:00;;;;;;;;;;;;;;;3.46;53.80;99223.44;5093940;28;910;-55
2022/01/31 04:16:27;;;;;;;;;;;;;;;3.54;53.42;99203.25;5112418;28;1051;-52
2022/01/31 04:18:54;;;;;;;;;;;;;;;3.56;53.51;99211.06;5111786;28;1473;-51
2022/01/31 04:21:21;;;;;;;;;;;;;;;3.68;53.36;99219.03;5111729;28;1909;-56
2022/01/31 04:23:50;;;;;;;;;;;;;;;3.48;53.97;99215.66;5111975;28;913;-55
2022/01/31 04:26:17;;;;;;;;;;;;;;;3.40;53.87;99173.78;5111910;28;971;-48
2022/01/31 04:28:45;;;;;;;;;;;;;;;3.54;53.37;99238.78;5093748;28;841;-54
2022/01/31 04:33:47;;;;;;;;;;;;;;;3.50;53.51;99237.13;5112182;28;688;-54
2022/01/31 04:36:14;;;;;;;;;;;;;;;3.50;54.00;99251.59;5112150;28;886;-55
2022/01/31 04:38:41;;;;;;;;;;;;;;;3.54;53.61;99218.84;5111820;28;911;-52
2022/01/31 04:41:08;;;;;;;;;;;;;;;3.66;53.55;99238.53;5112004;28;881;-50
2022/01/31 04:43:34;;;;;;;;;;;;;;;3.65;53.28;99231.50;5111816;28;1885;-54
2022/01/31 04:49:06;;;;;;;;;;;;;;;3.65;53.71;99192.47;5111811;28;601;-48
2022/01/31 04:51:33;;;;;;;;;;;;;;;3.53;53.42;99250.84;5093525;28;908;-54
2022/01/31 04:53:59;;;;;;;;;;;;;;;3.58;53.75;99239.59;5111787;28;901;-53
2022/01/31 04:56:26;;;;;;;;;;;;;;;3.57;53.47;99281.75;5111662;28;908;-55
2022/01/31 04:58:52;;;;;;;;;;;;;;;3.60;53.18;99272.03;5111746;28;810;-49
2022/01/31 05:01:19;;;;;;;;;;;;;;;3.55;53.34;99286.81;5111556;28;1881;-54
2022/01/31 05:03:46;;;;;;;;;;;;;;;3.57;53.29;99272.78;5111646;28;861;-47
2022/01/31 05:06:16;;;;;;;;;;;;;;;3.61;53.05;99306.41;5112490;28;882;-49
2022/01/31 05:21:08;;;;;;;;;;;;;;;2.86;55.83;99360.56;5094537;28;1558;-54
2022/01/31 05:23:34;;;;;;;;;;;;;;;2.94;55.04;99351.31;5095319;28;1977;-55
2022/01/31 05:26:01;;;;;;;;;;;;;;;3.08;55.09;99342.63;5094746;28;886;-49
2022/01/31 05:28:27;;;;;;;;;;;;;;;3.22;54.28;99362.00;5094699;28;1230;-55
2022/01/31 05:30:53;;;;;;;;;;;;;;;3.19;54.54;99365.44;5094612;28;929;-54
2022/01/31 05:33:20;;;;;;;;;;;;;;;3.09;54.94;99373.44;5094794;28;882;-54
2022/01/31 05:35:46;;;;;;;;;;;;;;;3.15;54.69;99377.44;5094702;28;814;-55
2022/01/31 05:38:13;;;;;;;;;;;;;;;3.14;54.62;99386.81;5094631;28;1056;-55
2022/01/31 05:40:40;;;;;;;;;;;;;;;3.02;54.64;99385.81;5094601;28;889;-54
2022/01/31 05:43:06;;;;;;;;;;;;;;;3.10;54.04;99380.50;5094509;28;1913;-55
2022/01/31 05:45:33;;;;;;;;;;;;;;;3.04;54.72;99385.44;5094422;28;858;-55
2022/01/31 05:47:59;;;;;;;;;;;;;;;2.93;54.62;99387.19;5094540;28;826;-54
2022/01/31 05:50:26;;;;;;;;;;;;;;;2.91;55.01;99395.75;5094657;28;918;-54
2022/01/31 05:52:52;;;;;;;;;;;;;;;2.89;54.62;99397.25;5094569;28;953;-54
2022/01/31 05:55:19;;;;;;;;;;;;;;;3.01;55.07;99389.69;5094628;28;1030;-55
2022/01/31 05:57:45;;;;;;;;;;;;;;;3.16;54.26;99409.88;5094350;28;970;-55
2022/01/31 06:00:12;;;;;;;;;;;;;;;3.38;54.29;99415.72;5094471;28;875;-55
2022/01/31 06:02:39;;;;;;;;;;;;;;;3.52;53.75;99426.91;5094281;28;1953;-54
2022/01/31 06:05:06;;;;;;;;;;;;;;;3.70;53.00;99432.66;5076099;28;831;-54
2022/01/31 06:07:32;;;;;;;;;;;;;;;3.91;52.80;99425.97;5093902;28;892;-54
2022/01/31 06:10:00;;;;;;;;;;;;;;;4.07;52.12;99432.06;5094194;28;897;-55
2022/01/31 06:12:27;;;;;;;;;;;;;;;4.21;51.38;99431.50;5093953;28;889;-54
2022/01/31 06:14:53;;;;;;;;;;;;;;;4.34;51.21;99432.88;5094006;28;915;-55
2022/01/31 06:17:20;;;;;;;;;;;;;;;4.35;51.48;99439.91;5093293;28;898;-55
2022/01/31 06:19:46;;;;;;;;;;;;;;;3.82;52.07;99437.94;5093451;28;1384;-55
2022/01/31 06:22:12;;;;;;;;;;;;;;;3.39;53.25;99444.59;5093657;28;1917;-54
2022/01/31 06:24:40;;;;;;;;;;;;;;;3.13;54.17;99435.16;5093669;28;893;-54
2022/01/31 06:27:06;;;;;;;;;;;;;;;3.33;53.92;99430.47;5093619;28;863;-54
2022/01/31 06:29:33;;;;;;;;;;;;;;;4.17;52.52;99442.38;5093656;28;819;-55
2022/01/31 06:31:59;;;;;;;;;;;;;;;4.89;50.63;99429.69;5093506;28;823;-54
2022/01/31 06:34:25;;;;;;;;;;;;;;;5.51;50.17;99434.63;5093564;28;831;-54
2022/01/31 06:36:52;;;;;;;;;;;;;;;5.93;48.37;99431.47;5093417;28;835;-55
2022/01/31 06:39:18;;;;;;;;;;;;;;;6.02;47.76;99435.91;5093622;28;861;-55
2022/01/31 06:41:45;;;;;;;;;;;;;;;5.81;47.62;99441.97;5093336;28;1897;-55
2022/01/31 06:44:11;;;;;;;;;;;;;;;5.68;47.63;99444.19;5093270;28;893;-55
2022/01/31 06:46:37;;;;;;;;;;;;;;;5.80;48.49;99454.88;5075087;28;828;-55
2022/01/31 06:49:04;;;;;;;;;;;;;;;6.18;47.33;99447.34;5093156;28;894;-55
2022/01/31 06:51:30;;;;;;;;;;;;;;;6.37;46.98;99451.81;5093113;28;981;-55
2022/01/31 06:53:59;;;;;;;;;;;;;;;6.54;46.86;99453.09;5092962;28;918;-55
2022/01/31 06:56:29;;;;;;;;;;;;;;;6.71;46.59;99460.63;5092837;28;926;-55
2022/01/31 06:58:57;;;;;;;;;;;;;;;6.57;46.09;99457.00;5092896;28;943;-55
2022/01/31 07:01:25;;;;;;;;;;;;;;;6.49;47.28;99454.25;5092878;28;938;-54
2022/01/31 07:03:53;;;;;;;;;;;;;;;6.57;47.38;99459.75;5092868;28;871;-55
2022/01/31 07:06:21;;;;;;;;;;;;;;;6.76;46.87;99451.22;5093125;28;925;-55
2022/01/31 07:08:48;;;;;;;;;;;;;;;6.87;46.28;99443.03;5092796;28;949;-55
2022/01/31 07:11:20;;;;;;;;;;;;;;;6.87;45.32;99434.78;5092643;28;894;-55
2022/01/31 07:13:49;;;;;;;;;;;;;;;6.77;44.91;99430.84;5092546;28;909;-55
2022/01/31 07:16:16;;;;;;;;;;;;;;;6.41;45.06;99429.88;5092920;28;930;-56
2022/01/31 07:18:43;;;;;;;;;;;;;;;6.26;44.72;99435.25;5092598;28;881;-56
2022/01/31 07:21:13;;;;;;;;;;;;;;;6.28;44.89;99430.19;5092334;28;1322;-55
2022/01/31 07:24:02;;;;;;;;;;;;;;;6.29;45.63;99415.31;5092353;28;1902;-55
2022/01/31 07:26:28;;;;;;;;;;;;;;;6.38;45.40;99431.44;5092384;28;1531;-55
2022/01/31 07:28:54;;;;;;;;;;;;;;;6.53;44.83;99410.34;5091668;28;823;-54
2022/01/31 07:31:21;;;;;;;;;;;;;;;6.30;45.05;99424.31;5092400;28;859;-56
2022/01/31 07:33:46;;;;;;;;;;;;;;;6.41;44.79;99405.94;5092281;28;878;-55
2022/01/31 07:36:12;;;;;;;;;;;;;;;6.41;45.15;99418.91;5092254;28;890;-56
2022/01/31 07:38:41;;;;;;;;;;;;;;;6.64;45.21;99424.91;5092303;28;866;-56
2022/01/31 07:41:12;;;;;;;;;;;;;;;6.74;44.49;99415.94;5092307;28;791;-56
2022/01/31 07:43:43;;;;;;;;;;;;;;;6.51;44.12;99409.94;5091970;28;1985;-56
2022/01/31 07:58:22;;;;;;;;;;;;;;;6.45;44.37;99386.75;5092305;28;645;-55
2022/01/31 08:00:48;;;;;;;;;;;;;;;6.48;44.71;99385.97;5091946;28;866;-55
2022/01/31 08:03:15;;;;;;;;;;;;;;;6.80;44.09;99374.34;5091748;28;1906;-54
2022/01/31 08:05:41;;;;;;;;;;;;;;;6.67;44.90;99406.84;5091834;28;831;-56
2022/01/31 08:08:08;;;;;;;;;;;;;;;6.74;43.78;99398.63;5091755;28;886;-55
2022/01/31 08:10:37;;;;;;;;;;;;;;;6.77;43.79;99400.63;5091611;28;917;-56
2022/01/31 08:13:06;;;;;;;;;;;;;;;7.08;43.41;99392.88;5091640;28;930;-56
2022/01/31 08:15:34;;;;;;;;;;;;;;;7.02;42.97;99384.22;5092024;28;875;-55
2022/01/31 08:17:59;;;;;;;;;;;;;;;6.98;43.02;99388.94;5091785;28;906;-56
2022/01/31 08:20:26;;;;;;;;;;;;;;;7.16;42.71;99359.50;5091619;28;1400;-53
2022/01/31 08:22:52;;;;;;;;;;;;;;;6.98;42.86;99383.44;5091535;28;1902;-56
2022/01/31 08:25:19;;;;;;;;;;;;;;;6.97;42.91;99372.81;5091658;28;834;-56
2022/01/31 08:27:48;;;;;;;;;;;;;;;7.26;43.50;99368.97;5091501;28;921;-56
2022/01/31 08:30:21;;;;;;;;;;;;;;;7.24;42.39;99365.03;5091364;28;941;-56
2022/01/31 08:32:59;;;;;;;;;;;;;;;7.25;42.63;99375.63;5091877;28;878;-56
2022/01/31 08:38:10;;;;;;;;;;;;;;;7.40;42.68;99376.44;5091897;28;597;-56
2022/01/31 08:40:37;;;;;;;;;;;;;;;7.47;41.16;99370.19;5092808;28;890;-57
2022/01/31 08:43:04;;;;;;;;;;;;;;;7.34;41.27;99380.78;5095602;28;1881;-56
2022/01/31 08:45:30;;;;;;;;;;;;;;;7.52;41.89;99380.78;5095751;28;862;-56
2022/01/31 08:47:56;;;;;;;;;;;;;;;7.62;41.82;99390.19;5095556;28;791;-56
2022/01/31 08:50:23;;;;;;;;;;;;;;;7.71;42.17;99393.34;5095577;28;853;-57
2022/01/31 08:52:50;;;;;;;;;;;;;;;7.68;42.25;99399.63;5095413;28;807;-56
2022/01/31 08:55:17;;;;;;;;;;;;;;;7.61;42.37;99383.13;5095464;28;867;-56
2022/01/31 08:57:43;;;;;;;;;;;;;;;7.56;41.41;99390.59;5095431;28;917;-56
2022/01/31 09:00:10;;;;;;;;;;;;;;;7.43;42.57;99381.16;5095683;28;873;-56
2022/01/31 09:02:40;;;;;;;;;;;;;;;7.39;41.41;99385.09;5095152;28;1961;-56
2022/01/31 09:05:07;;;;;;;;;;;;;;;7.32;41.81;99385.88;5095171;28;855;-56
2022/01/31 09:07:33;;;;;;;;;;;;;;;7.30;42.13;99385.47;5095226;28;901;-56
2022/01/31 09:10:00;;;;;;;;;;;;;;;7.29;42.35;99383.88;5095073;28;779;-56
2022/01/31 09:12:30;;;;;;;;;;;;;;;7.45;41.15;99356.81;5094944;28;913;-56
2022/01/31 09:14:57;;;;;;;;;;;;;;;7.42;41.48;99351.31;5094881;28;1205;-57
2022/01/31 09:17:24;;;;;;;;;;;;;;;7.47;41.08;99343.47;5095024;28;987;-56
2022/01/31 09:19:50;;;;;;;;;;;;;;;7.36;41.98;99340.72;5094733;28;1211;-56
2022/01/31 09:22:17;;;;;;;;;;;;;;;7.36;41.75;99334.41;5094692;28;1918;-56
2022/01/31 09:24:44;;;;;;;;;;;;;;;7.47;40.79;99334.44;5094877;28;909;-56
2022/01/31 09:27:11;;;;;;;;;;;;;;;7.45;41.66;99334.03;5094757;28;890;-56
2022/01/31 09:29:38;;;;;;;;;;;;;;;7.47;40.84;99320.69;5094525;28;894;-56
2022/01/31 09:32:05;;;;;;;;;;;;;;;7.65;41.33;99321.44;5094613;28;957;-56
2022/01/31 09:34:32;;;;;;;;;;;;;;;7.75;40.73;99322.63;5094751;28;858;-56
2022/01/31 09:37:00;;;;;;;;;;;;;;;7.82;41.99;99324.56;5094574;28;897;-56
2022/01/31 09:39:27;;;;;;;;;;;;;;;7.85;40.63;99321.81;5094493;28;906;-57
2022/01/31 09:41:57;;;;;;;;;;;;;;;8.01;40.54;99324.13;5094454;28;1955;-57
2022/01/31 09:48:30;;;;;;;;;;;;;;;8.02;39.50;99311.94;5094724;28;1148;-57
2022/01/31 09:50:11;;;;;;;;;;;;;;;7.78;39.67;99316.31;5094429;28;789;-56
2022/01/31 09:52:38;;;;;;;;;;;;;;;7.90;40.29;99306.88;5093499;28;1207;-57
2022/01/31 09:55:06;;;;;;;;;;;;;;;8.11;39.14;99300.53;5094480;28;799;-57
2022/01/31 09:57:32;;;;;;;;;;;;;;;8.08;38.15;99291.09;5094179;28;826;-56
2022/01/31 09:59:59;;;;;;;;;;;;;;;8.03;38.84;99291.50;5094216;28;937;-55
2022/01/31 10:02:24;;;;;;;;;;;;;;;8.20;39.50;99300.88;5094417;28;1893;-57
2022/01/31 10:04:51;;;;;;;;;;;;;;;8.35;38.89;99298.88;5094748;28;862;-56
2022/01/31 10:07:17;;;;;;;;;;;;;;;8.44;38.98;99290.22;5076032;28;835;-56
2022/01/31 10:09:49;;;;;;;;;;;;;;;8.68;39.16;99285.75;5094271;28;863;-56
2022/01/31 10:17:39;;;;;;;;;;;;;;;8.72;38.30;99281.78;5094242;28;677;-56
2022/01/31 10:20:07;;;;;;;;;;;;;;;8.72;38.72;99283.75;5093645;28;1199;-57
2022/01/31 10:22:35;;;;;;;;;;;;;;;8.97;37.92;99267.06;5093793;28;1913;-57
2022/01/31 10:25:06;;;;;;;;;;;;;;;8.96;37.69;99263.53;5093722;28;953;-57
2022/01/31 10:27:34;;;;;;;;;;;;;;;9.13;38.06;99272.06;5093794;28;802;-57
2022/01/31 10:30:19;;;;;;;;;;;;;;;9.16;37.56;99258.25;5093731;28;949;-57
2022/01/31 10:32:48;;;;;;;;;;;;;;;9.16;36.86;99255.50;5093974;28;874;-56
2022/01/31 10:35:19;;;;;;;;;;;;;;;8.81;36.84;99266.78;5093380;28;937;-57
2022/01/31 10:37:45;;;;;;;;;;;;;;;8.91;37.88;99255.69;5093842;28;783;-57
2022/01/31 10:51:42;;;;;;;;;;;;;;;9.53;35.90;99242.19;5093569;28;681;-57
2022/01/31 10:56:40;;;;;;;;;;;;;;;9.38;35.82;99233.25;5093010;28;728;-57
2022/01/31 10:59:08;;;;;;;;;;;;;;;9.46;37.21;99222.97;5093348;28;874;-58
2022/01/31 11:01:37;;;;;;;;;;;;;;;9.66;35.08;99217.63;5093280;28;1885;-57
2022/01/31 11:04:05;;;;;;;;;;;;;;;9.60;35.27;99201.53;5092809;28;919;-56
2022/01/31 11:06:32;;;;;;;;;;;;;;;9.43;36.47;99199.75;5092920;28;973;-58
2022/01/31 11:09:03;;;;;;;;;;;;;;;9.60;35.27;99195.19;5093196;28;838;-58
2022/01/31 11:11:31;;;;;;;;;;;;;;;9.32;34.89;99183.25;5092890;28;779;-54
2022/01/31 11:13:59;;;;;;;;;;;;;;;9.17;36.27;99181.84;5074634;28;909;-58
2022/01/31 11:16:27;;;;;;;;;;;;;;;9.09;35.86;99169.31;5092887;28;918;-57
2022/01/31 11:18:56;;;;;;;;;;;;;;;8.79;35.92;99187.28;5092460;28;1140;-57
2022/01/31 11:21:28;;;;;;;;;;;;;;;9.00;36.99;99186.31;5092902;28;980;-57
2022/01/31 11:24:00;;;;;;;;;;;;;;;9.30;35.17;99173.84;5074293;28;1909;-58
2022/01/31 11:26:34;;;;;;;;;;;;;;;9.19;35.91;99179.47;5092513;28;926;-58
2022/01/31 11:29:02;;;;;;;;;;;;;;;9.16;35.15;99163.75;5092449;28;916;-58
2022/01/31 11:31:29;;;;;;;;;;;;;;;9.05;35.14;99168.59;5092492;28;881;-58
2022/01/31 11:33:58;;;;;;;;;;;;;;;9.07;35.58;99172.50;5092527;28;1022;-58
2022/01/31 11:36:24;;;;;;;;;;;;;;;9.31;35.39;99165.16;5092340;28;940;-57
2022/01/31 11:38:51;;;;;;;;;;;;;;;9.29;35.24;99166.78;5092079;28;869;-58
2022/01/31 11:41:18;;;;;;;;;;;;;;;9.31;34.93;99169.91;5092345;28;857;-58
2022/01/31 11:43:53;;;;;;;;;;;;;;;9.43;35.27;99163.06;5092223;28;1943;-58
2022/01/31 11:46:23;;;;;;;;;;;;;;;9.52;33.96;99177.19;5092197;28;826;-57
2022/01/31 11:48:52;;;;;;;;;;;;;;;9.28;34.12;99163.25;5092188;28;1020;-58
2022/01/31 11:51:19;;;;;;;;;;;;;;;9.44;34.83;99148.88;5092096;28;938;-57
2022/01/31 11:53:47;;;;;;;;;;;;;;;9.62;34.18;99132.13;5092064;28;905;-57
2022/01/31 11:56:21;;;;;;;;;;;;;;;9.51;33.96;99134.22;5091995;28;886;-58
2022/01/31 11:58:49;;;;;;;;;;;;;;;9.56;33.95;99142.84;5091954;28;906;-57
2022/01/31 12:01:15;;;;;;;;;;;;;;;9.57;32.47;99129.81;5091835;28;882;-57
2022/01/31 12:03:53;;;;;;;;;;;;;;;9.81;33.21;99125.19;5092149;28;1927;-57
2022/01/31 12:06:23;;;;;;;;;;;;;;;9.93;32.61;99121.09;5091897;28;894;-57
2022/01/31 12:08:52;;;;;;;;;;;;;;;9.86;33.34;99121.97;5091748;28;891;-57
2022/01/31 12:11:25;;;;;;;;;;;;;;;9.99;33.40;99108.41;5091724;28;858;-58
2022/01/31 12:13:57;;;;;;;;;;;;;;;10.26;33.17;99104.88;5091689;28;929;-58
2022/01/31 12:16:51;;;;;;;;;;;;;;;10.40;32.20;99096.41;5091437;28;953;-56
2022/01/31 12:20:14;;;;;;;;;;;;;;;10.12;33.47;99114.91;5091448;28;1236;-57
2022/01/31 12:22:05;;;;;;;;;;;;;;;10.32;32.64;99100.47;5080679;28;1965;-58
2022/01/31 12:24:45;;;;;;;;;;;;;;;10.53;32.20;99097.38;5091637;28;988;-58
2022/01/31 12:27:15;;;;;;;;;;;;;;;10.39;31.46;99090.09;5091585;28;934;-57
2022/01/31 12:29:46;;;;;;;;;;;;;;;10.29;32.36;99084.72;5091684;28;887;-57
2022/01/31 12:32:15;;;;;;;;;;;;;;;10.42;32.79;99103.06;5091751;28;911;-58
2022/01/31 12:34:47;;;;;;;;;;;;;;;10.46;30.97;99099.47;5091650;28;883;-58
2022/01/31 12:37:14;;;;;;;;;;;;;;;10.42;30.72;99100.28;5091534;28;822;-58
2022/01/31 12:39:43;;;;;;;;;;;;;;;10.29;30.71;99101.28;5091453;28;846;-57
2022/01/31 12:45:13;;;;;;;;;;;;;;;10.20;31.19;99090.75;5029234;28;1180;-58
2022/01/31 12:48:00;;;;;;;;;;;;;;;10.49;31.27;99093.09;5079809;28;1086;-58
2022/01/31 12:50:26;;;;;;;;;;;;;;;10.40;29.65;99080.59;5080431;28;1263;-58
2022/01/31 12:52:53;;;;;;;;;;;;;;;10.39;30.14;99087.34;5091568;28;858;-58
2022/01/31 12:55:21;;;;;;;;;;;;;;;10.43;30.36;99095.53;5091625;28;802;-58
2022/01/31 12:57:48;;;;;;;;;;;;;;;10.26;30.45;99089.06;5091202;28;926;-58
2022/01/31 13:00:15;;;;;;;;;;;;;;;10.29;30.37;99082.75;5091640;28;839;-58
2022/01/31 13:02:51;;;;;;;;;;;;;;;10.47;30.38;99087.22;5091225;28;1910;-59
2022/01/31 13:05:30;;;;;;;;;;;;;;;10.66;30.44;99089.25;5091270;28;857;-59
2022/01/31 13:07:56;;;;;;;;;;;;;;;10.54;29.99;99090.66;5091380;28;897;-58
2022/01/31 13:10:22;;;;;;;;;;;;;;;10.57;29.61;99092.56;5091225;28;927;-58
2022/01/31 13:13:01;;;;;;;;;;;;;;;10.87;29.60;99090.09;5091642;28;857;-58
2022/01/31 13:15:59;;;;;;;;;;;;;;;11.01;28.74;99087.09;5091249;28;942;-58
2022/01/31 13:18:30;;;;;;;;;;;;;;;10.94;28.75;99085.22;5091481;28;838;-59
2022/01/31 13:20:58;;;;;;;;;;;;;;;10.97;28.94;99087.16;5091040;28;1387;-58
2022/01/31 13:23:26;;;;;;;;;;;;;;;10.95;28.53;99078.50;5090898;28;1972;-59
2022/01/31 13:26:19;;;;;;;;;;;;;;;10.87;28.25;99081.81;5090914;28;847;-59
2022/01/31 13:28:49;;;;;;;;;;;;;;;10.71;28.12;99086.03;5091658;28;1125;-59
2022/01/31 13:31:17;;;;;;;;;;;;;;;10.75;28.25;99081.22;5094827;28;898;-59
2022/01/31 13:33:44;;;;;;;;;;;;;;;10.73;28.82;99080.88;5094622;28;1290;-59
2022/01/31 13:36:11;;;;;;;;;;;;;;;10.82;28.52;99067.28;5094586;28;894;-59
2022/01/31 13:38:38;;;;;;;;;;;;;;;10.92;28.49;99068.28;5094751;28;885;-58
2022/01/31 13:41:04;;;;;;;;;;;;;;;10.73;28.62;99067.06;5094738;28;858;-59
2022/01/31 13:43:33;;;;;;;;;;;;;;;10.66;28.39;99067.16;5094396;28;1955;-59
2022/01/31 13:48:54;;;;;;;;;;;;;;;10.41;29.17;99067.56;5094331;28;759;-59
2022/01/31 13:51:36;;;;;;;;;;;;;;;10.21;28.69;99053.66;5094270;28;927;-60
2022/01/31 13:54:12;;;;;;;;;;;;;;;10.07;29.80;99053.84;5094282;28;796;-58
2022/01/31 13:56:40;;;;;;;;;;;;;;;10.12;29.51;99050.63;5094263;28;850;-59
2022/01/31 13:59:11;;;;;;;;;;;;;;;9.81;29.88;99047.91;5094499;28;834;-59
2022/01/31 14:01:38;;;;;;;;;;;;;;;9.60;30.28;99044.25;5094351;28;882;-59
2022/01/31 14:04:04;;;;;;;;;;;;;;;9.45;30.11;99042.84;5094011;28;1886;-58
2022/01/31 14:06:32;;;;;;;;;;;;;;;9.49;30.31;99032.56;5094273;28;830;-59
2022/01/31 14:09:00;;;;;;;;;;;;;;;9.68;30.35;99033.13;5094089;28;814;-58
2022/01/31 14:11:28;;;;;;;;;;;;;;;9.77;30.10;99031.41;5093986;28;834;-59
2022/01/31 14:13:55;;;;;;;;;;;;;;;9.66;30.42;99030.75;5094097;28;869;-59
2022/01/31 14:16:35;;;;;;;;;;;;;;;9.57;30.83;99039.56;5094165;28;1073;-59
2022/01/31 14:19:03;;;;;;;;;;;;;;;9.27;30.55;99036.78;5093730;28;1270;-58
2022/01/31 14:21:29;;;;;;;;;;;;;;;9.03;30.98;99031.16;5094240;28;830;-59